首页
METAR-TAF:

METAR-TAF

机场 :

埃德蒙顿国际机场

埃德蒙顿, 艾伯塔, 加拿大

纬度: 53-18N, 经度: 113-35W, 海拔: 715米

当前天气观测

该预报发布于32分钟前的15:00 UTC
风速4节,风向
温度 12°C
湿度 76%
气压 1012 hPa
能見度: 32.2公里
少量云层高于9000英尺
多云层高于25000英尺

METAR: CYEG 111500Z 17004KT 20SM FEW090 BKN250 12/08 A2988 RMK AC1CI4 SLP128 DENSITY ALT 2700FT

时间: 09:32 (15:32 UTC)

预报

该预报发布于54分钟前的14:38 UTC
预报有效从11日的 15点(UTC)到 12日的 12点(UTC)
风速3节,风向多变
能見度: 10公里
少量云层高于12000英尺
散云层高于24000英尺
成为
从 11日的 15点(UTC)到 11日的 17点(UTC)
风速8节,风向东南
散云层高于6000英尺
从 11日的 2100点(UTC)
风速12节,风向东南
能見度: 10公里
散云层高于6000英尺
短暂存在
从 11日的 21点(UTC)到 12日的 02点(UTC)
能見度: 10公里
多云层高于6000英尺
小阵雨
几率 30%
从 11日的 21点(UTC)到 12日的 02点(UTC)
风速20节,风向多变,有时为35节阵风
能見度: 6.4公里
多云层高于6000英尺, 积雨云.
雷暴, 雨
从 12日的 0200点(UTC)
风速10节,风向东南
能見度: 10公里
散云层高于8000英尺
成为
从 12日的 02点(UTC)到 12日的 04点(UTC)
风速8节,风向西
成为
从 12日的 04点(UTC)到 12日的 06点(UTC)
风速3节,风向多变
从 12日的 0600点(UTC)
风速3节,风向多变
能見度: 10公里
散云层高于1200英尺
多云层高于3000英尺
小阵雨
成为
从 12日的 08点(UTC)到 12日的 10点(UTC)
风速10节,风向西北,有时为20节阵风

TAF: CYEG 111438Z 1115/1212 VRB03KT P6SM FEW120 SCT240 BECMG 1115/1117 14008KT SCT060 FM112100 14012KT P6SM SCT060 TEMPO 1121/1202 P6SM -SHRA BKN060 PROB30 1121/1202 VRB20G35KT 4SM TSRA BKN060CB FM120200 14010KT P6SM SCT080 BECMG 1202/1204 28008KT BECMG 1204/1206 VRB03KT FM120600 VRB03KT P6SM -SHRA SCT012 BKN030 BECMG 1208/1210 32010G20KT RMK NXT FCST BY 111800Z

超过4000个机场的气象观测和天气预报(METAR&TAF报告)。

可查询的气象台以黄色和红色小点在地图上表示。

将鼠标移到小点上方,可查看气象台名称。

然后点击查看天气观测和预报。

如需切换地图:点击带黑十字的绿色按钮放大地图;点击带横线的绿色按钮缩小地图;或者点击绿色箭头查看邻近地区的地图。


METAR-TAF: